sensor_id;sensor_type;location;lat;lon;timestamp;P1;durP1;ratioP1;P2;durP2;ratioP2
22539;SDS011;11436;50.860;4.334;2022-09-17T00:01:59;10.57;;;2.15;;
22539;SDS011;11436;50.860;4.334;2022-09-17T00:04:25;10.10;;;2.00;;
22539;SDS011;11436;50.860;4.334;2022-09-17T00:06:51;12.38;;;2.05;;
22539;SDS011;11436;50.860;4.334;2022-09-17T00:09:17;7.22;;;1.50;;
22539;SDS011;11436;50.860;4.334;2022-09-17T00:11:43;12.05;;;1.50;;
22539;SDS011;11436;50.860;4.334;2022-09-17T00:14:13;13.65;;;1.77;;
22539;SDS011;11436;50.860;4.334;2022-09-17T00:16:42;10.25;;;1.40;;
22539;SDS011;11436;50.860;4.334;2022-09-17T00:19:12;10.75;;;1.30;;
22539;SDS011;11436;50.860;4.334;2022-09-17T00:21:40;14.07;;;2.20;;
22539;SDS011;11436;50.860;4.334;2022-09-17T00:24:06;10.25;;;1.95;;
22539;SDS011;11436;50.860;4.334;2022-09-17T00:26:32;8.70;;;1.20;;
22539;SDS011;11436;50.860;4.334;2022-09-17T00:28:59;10.20;;;1.98;;
22539;SDS011;11436;50.860;4.334;2022-09-17T00:31:25;9.02;;;1.70;;
22539;SDS011;11436;50.860;4.334;2022-09-17T00:33:52;11.25;;;1.70;;
22539;SDS011;11436;50.860;4.334;2022-09-17T00:36:18;9.85;;;2.30;;
22539;SDS011;11436;50.860;4.334;2022-09-17T00:38:49;14.07;;;1.90;;
22539;SDS011;11436;50.860;4.334;2022-09-17T00:41:15;9.10;;;1.42;;
22539;SDS011;11436;50.860;4.334;2022-09-17T00:43:43;9.07;;;1.40;;
22539;SDS011;11436;50.860;4.334;2022-09-17T00:46:55;10.85;;;1.80;;
22539;SDS011;11436;50.860;4.334;2022-09-17T00:49:05;8.32;;;1.63;;
22539;SDS011;11436;50.860;4.334;2022-09-17T00:51:40;10.20;;;1.65;;
22539;SDS011;11436;50.860;4.334;2022-09-17T00:54:13;8.20;;;1.63;;
22539;SDS011;11436;50.860;4.334;2022-09-17T00:56:40;9.77;;;1.70;;
22539;SDS011;11436;50.860;4.334;2022-09-17T00:59:07;17.92;;;2.00;;
22539;SDS011;11436;50.860;4.334;2022-09-17T01:01:34;9.35;;;1.70;;
22539;SDS011;11436;50.860;4.334;2022-09-17T01:04:00;6.50;;;1.55;;
22539;SDS011;11436;50.860;4.334;2022-09-17T01:25:37;17.63;;;2.42;;
22539;SDS011;11436;50.860;4.334;2022-09-17T01:31:20;12.80;;;2.13;;
22539;SDS011;11436;50.860;4.334;2022-09-17T01:34:03;12.32;;;1.85;;
22539;SDS011;11436;50.860;4.334;2022-09-17T01:37:10;10.35;;;1.85;;
22539;SDS011;11436;50.860;4.334;2022-09-17T01:42:28;8.02;;;1.90;;
22539;SDS011;11436;50.860;4.334;2022-09-17T01:47:53;8.30;;;1.73;;
22539;SDS011;11436;50.860;4.334;2022-09-17T01:50:35;12.88;;;2.03;;
22539;SDS011;11436;50.860;4.334;2022-09-17T01:53:06;9.35;;;2.03;;
22539;SDS011;11436;50.860;4.334;2022-09-17T01:55:34;14.45;;;2.45;;
22539;SDS011;11436;50.860;4.334;2022-09-17T01:58:13;12.15;;;2.10;;
22539;SDS011;11436;50.860;4.334;2022-09-17T02:00:46;11.77;;;2.05;;
22539;SDS011;11436;50.860;4.334;2022-09-17T02:08:35;13.43;;;2.50;;
22539;SDS011;11436;50.860;4.334;2022-09-17T02:11:21;19.05;;;2.75;;
22539;SDS011;11436;50.860;4.334;2022-09-17T02:14:22;13.73;;;2.53;;
22539;SDS011;11436;50.860;4.334;2022-09-17T02:16:48;16.20;;;2.33;;
22539;SDS011;11436;50.860;4.334;2022-09-17T02:19:18;12.88;;;2.08;;
22539;SDS011;11436;50.860;4.334;2022-09-17T02:21:54;17.05;;;2.40;;
22539;SDS011;11436;50.860;4.334;2022-09-17T02:24:24;10.10;;;1.95;;
22539;SDS011;11436;50.860;4.334;2022-09-17T02:29:46;14.02;;;2.63;;
22539;SDS011;11436;50.860;4.334;2022-09-17T02:32:12;13.30;;;2.17;;
22539;SDS011;11436;50.860;4.334;2022-09-17T02:34:38;22.75;;;2.28;;
22539;SDS011;11436;50.860;4.334;2022-09-17T02:37:04;15.40;;;2.13;;
22539;SDS011;11436;50.860;4.334;2022-09-17T02:39:30;17.02;;;2.30;;
22539;SDS011;11436;50.860;4.334;2022-09-17T02:47:27;16.77;;;2.40;;
22539;SDS011;11436;50.860;4.334;2022-09-17T02:58:35;14.13;;;2.13;;
22539;SDS011;11436;50.860;4.334;2022-09-17T03:01:07;15.52;;;2.25;;
22539;SDS011;11436;50.860;4.334;2022-09-17T03:03:42;16.13;;;2.30;;
22539;SDS011;11436;50.860;4.334;2022-09-17T03:06:10;12.85;;;2.10;;
22539;SDS011;11436;50.860;4.334;2022-09-17T03:08:39;15.60;;;2.60;;
22539;SDS011;11436;50.860;4.334;2022-09-17T03:11:06;12.18;;;2.13;;
22539;SDS011;11436;50.860;4.334;2022-09-17T03:13:33;16.38;;;2.75;;
22539;SDS011;11436;50.860;4.334;2022-09-17T03:16:00;11.70;;;2.53;;
22539;SDS011;11436;50.860;4.334;2022-09-17T03:18:30;10.30;;;2.42;;
22539;SDS011;11436;50.860;4.334;2022-09-17T03:20:56;16.58;;;2.80;;
22539;SDS011;11436;50.860;4.334;2022-09-17T03:23:22;11.40;;;2.47;;
22539;SDS011;11436;50.860;4.334;2022-09-17T03:25:48;17.52;;;2.47;;
22539;SDS011;11436;50.860;4.334;2022-09-17T03:28:15;14.65;;;2.67;;
22539;SDS011;11436;50.860;4.334;2022-09-17T03:30:42;17.00;;;2.35;;
22539;SDS011;11436;50.860;4.334;2022-09-17T03:33:08;13.20;;;2.20;;
22539;SDS011;11436;50.860;4.334;2022-09-17T03:35:34;13.82;;;2.30;;
22539;SDS011;11436;50.860;4.334;2022-09-17T03:37:59;15.20;;;2.67;;
22539;SDS011;11436;50.860;4.334;2022-09-17T03:40:25;15.27;;;2.30;;
22539;SDS011;11436;50.860;4.334;2022-09-17T03:42:51;11.43;;;1.83;;
22539;SDS011;11436;50.860;4.334;2022-09-17T03:45:17;12.02;;;2.15;;
22539;SDS011;11436;50.860;4.334;2022-09-17T03:47:42;13.85;;;2.53;;
22539;SDS011;11436;50.860;4.334;2022-09-17T03:50:08;12.50;;;3.22;;
22539;SDS011;11436;50.860;4.334;2022-09-17T03:52:34;15.05;;;2.25;;
22539;SDS011;11436;50.860;4.334;2022-09-17T03:55:00;13.63;;;2.10;;
22539;SDS011;11436;50.860;4.334;2022-09-17T03:57:26;11.73;;;2.08;;
22539;SDS011;11436;50.860;4.334;2022-09-17T03:59:54;15.57;;;2.45;;
22539;SDS011;11436;50.860;4.334;2022-09-17T04:02:19;17.67;;;2.72;;
22539;SDS011;11436;50.860;4.334;2022-09-17T04:04:45;16.30;;;2.65;;
22539;SDS011;11436;50.860;4.334;2022-09-17T04:07:12;27.35;;;3.25;;
22539;SDS011;11436;50.860;4.334;2022-09-17T04:09:38;17.50;;;2.80;;
22539;SDS011;11436;50.860;4.334;2022-09-17T04:12:03;19.60;;;3.17;;
22539;SDS011;11436;50.860;4.334;2022-09-17T04:14:29;15.32;;;2.28;;
22539;SDS011;11436;50.860;4.334;2022-09-17T04:16:56;18.60;;;3.10;;
22539;SDS011;11436;50.860;4.334;2022-09-17T04:19:22;18.52;;;2.63;;
22539;SDS011;11436;50.860;4.334;2022-09-17T04:21:48;24.45;;;3.70;;
22539;SDS011;11436;50.860;4.334;2022-09-17T04:24:14;16.45;;;2.53;;
22539;SDS011;11436;50.860;4.334;2022-09-17T04:26:40;19.67;;;3.28;;
22539;SDS011;11436;50.860;4.334;2022-09-17T04:29:06;29.67;;;3.42;;
22539;SDS011;11436;50.860;4.334;2022-09-17T04:31:32;15.32;;;2.63;;
22539;SDS011;11436;50.860;4.334;2022-09-17T04:33:57;26.08;;;3.25;;
22539;SDS011;11436;50.860;4.334;2022-09-17T04:36:23;21.00;;;3.75;;
22539;SDS011;11436;50.860;4.334;2022-09-17T04:38:49;23.35;;;3.03;;
22539;SDS011;11436;50.860;4.334;2022-09-17T04:41:15;16.02;;;3.13;;
22539;SDS011;11436;50.860;4.334;2022-09-17T04:43:41;19.02;;;3.00;;
22539;SDS011;11436;50.860;4.334;2022-09-17T04:46:07;16.27;;;3.17;;
22539;SDS011;11436;50.860;4.334;2022-09-17T04:48:32;25.60;;;3.85;;
22539;SDS011;11436;50.860;4.334;2022-09-17T04:50:58;18.90;;;2.97;;
22539;SDS011;11436;50.860;4.334;2022-09-17T04:53:24;21.17;;;3.25;;
22539;SDS011;11436;50.860;4.334;2022-09-17T04:55:50;18.58;;;2.83;;
22539;SDS011;11436;50.860;4.334;2022-09-17T04:58:15;21.02;;;2.97;;
22539;SDS011;11436;50.860;4.334;2022-09-17T05:00:41;24.20;;;3.20;;
22539;SDS011;11436;50.860;4.334;2022-09-17T05:03:07;21.88;;;2.70;;
22539;SDS011;11436;50.860;4.334;2022-09-17T05:05:33;15.13;;;2.67;;
22539;SDS011;11436;50.860;4.334;2022-09-17T05:07:59;23.83;;;4.53;;
22539;SDS011;11436;50.860;4.334;2022-09-17T05:10:25;16.55;;;4.40;;
22539;SDS011;11436;50.860;4.334;2022-09-17T05:12:51;13.82;;;2.42;;
22539;SDS011;11436;50.860;4.334;2022-09-17T05:15:18;15.18;;;2.70;;
22539;SDS011;11436;50.860;4.334;2022-09-17T05:17:44;13.77;;;2.63;;
22539;SDS011;11436;50.860;4.334;2022-09-17T05:20:11;17.60;;;3.08;;
22539;SDS011;11436;50.860;4.334;2022-09-17T05:22:41;14.93;;;2.47;;
22539;SDS011;11436;50.860;4.334;2022-09-17T05:25:08;20.33;;;3.83;;
22539;SDS011;11436;50.860;4.334;2022-09-17T05:27:34;17.67;;;3.33;;
22539;SDS011;11436;50.860;4.334;2022-09-17T05:30:00;20.83;;;3.15;;
22539;SDS011;11436;50.860;4.334;2022-09-17T05:32:26;18.75;;;2.63;;
22539;SDS011;11436;50.860;4.334;2022-09-17T05:34:52;14.70;;;2.33;;
22539;SDS011;11436;50.860;4.334;2022-09-17T05:37:18;18.45;;;2.78;;
22539;SDS011;11436;50.860;4.334;2022-09-17T05:39:43;20.42;;;3.20;;
22539;SDS011;11436;50.860;4.334;2022-09-17T05:42:09;14.70;;;2.60;;
22539;SDS011;11436;50.860;4.334;2022-09-17T05:44:35;13.10;;;2.88;;
22539;SDS011;11436;50.860;4.334;2022-09-17T05:47:01;24.17;;;2.65;;
22539;SDS011;11436;50.860;4.334;2022-09-17T05:49:27;19.15;;;2.63;;
22539;SDS011;11436;50.860;4.334;2022-09-17T05:51:52;24.05;;;3.88;;
22539;SDS011;11436;50.860;4.334;2022-09-17T05:54:18;16.00;;;2.60;;
22539;SDS011;11436;50.860;4.334;2022-09-17T05:56:44;26.40;;;3.08;;
22539;SDS011;11436;50.860;4.334;2022-09-17T05:59:10;17.55;;;3.45;;
22539;SDS011;11436;50.860;4.334;2022-09-17T06:01:36;20.23;;;3.13;;
22539;SDS011;11436;50.860;4.334;2022-09-17T06:04:02;11.88;;;2.40;;
22539;SDS011;11436;50.860;4.334;2022-09-17T06:06:28;20.30;;;2.65;;
22539;SDS011;11436;50.860;4.334;2022-09-17T06:08:55;14.32;;;2.83;;
22539;SDS011;11436;50.860;4.334;2022-09-17T06:11:23;14.85;;;2.60;;
22539;SDS011;11436;50.860;4.334;2022-09-17T06:13:53;18.75;;;2.67;;
22539;SDS011;11436;50.860;4.334;2022-09-17T06:16:21;15.63;;;2.72;;
22539;SDS011;11436;50.860;4.334;2022-09-17T06:18:47;15.75;;;2.30;;
22539;SDS011;11436;50.860;4.334;2022-09-17T06:21:19;15.57;;;2.53;;
22539;SDS011;11436;50.860;4.334;2022-09-17T06:23:46;16.45;;;2.67;;
22539;SDS011;11436;50.860;4.334;2022-09-17T06:26:13;15.80;;;2.95;;
22539;SDS011;11436;50.860;4.334;2022-09-17T06:28:39;12.02;;;3.20;;
22539;SDS011;11436;50.860;4.334;2022-09-17T06:31:05;10.68;;;2.58;;
22539;SDS011;11436;50.860;4.334;2022-09-17T06:33:32;9.70;;;1.88;;
22539;SDS011;11436;50.860;4.334;2022-09-17T06:35:59;17.60;;;2.78;;
22539;SDS011;11436;50.860;4.334;2022-09-17T06:38:29;12.90;;;2.42;;
22539;SDS011;11436;50.860;4.334;2022-09-17T06:40:57;11.23;;;2.00;;
22539;SDS011;11436;50.860;4.334;2022-09-17T06:43:24;13.25;;;2.08;;
22539;SDS011;11436;50.860;4.334;2022-09-17T06:46:00;12.52;;;2.13;;
22539;SDS011;11436;50.860;4.334;2022-09-17T06:48:27;15.40;;;2.42;;
22539;SDS011;11436;50.860;4.334;2022-09-17T06:50:54;12.75;;;1.90;;
22539;SDS011;11436;50.860;4.334;2022-09-17T06:53:21;14.50;;;2.40;;
22539;SDS011;11436;50.860;4.334;2022-09-17T06:55:48;12.68;;;2.30;;
22539;SDS011;11436;50.860;4.334;2022-09-17T06:58:14;13.23;;;2.88;;
22539;SDS011;11436;50.860;4.334;2022-09-17T07:00:39;15.75;;;2.10;;
22539;SDS011;11436;50.860;4.334;2022-09-17T07:03:05;13.95;;;2.47;;
22539;SDS011;11436;50.860;4.334;2022-09-17T07:05:31;11.10;;;2.13;;
22539;SDS011;11436;50.860;4.334;2022-09-17T07:07:59;11.32;;;2.25;;
22539;SDS011;11436;50.860;4.334;2022-09-17T07:10:29;20.63;;;2.78;;
22539;SDS011;11436;50.860;4.334;2022-09-17T07:12:56;15.10;;;2.35;;
22539;SDS011;11436;50.860;4.334;2022-09-17T07:15:23;12.30;;;2.28;;
22539;SDS011;11436;50.860;4.334;2022-09-17T07:17:49;10.45;;;2.17;;
22539;SDS011;11436;50.860;4.334;2022-09-17T07:20:15;13.27;;;2.30;;
22539;SDS011;11436;50.860;4.334;2022-09-17T07:22:41;13.60;;;2.28;;
22539;SDS011;11436;50.860;4.334;2022-09-17T07:25:07;11.70;;;2.33;;
22539;SDS011;11436;50.860;4.334;2022-09-17T07:27:34;10.82;;;2.00;;
22539;SDS011;11436;50.860;4.334;2022-09-17T07:30:00;14.77;;;2.42;;
22539;SDS011;11436;50.860;4.334;2022-09-17T07:32:28;14.23;;;1.80;;
22539;SDS011;11436;50.860;4.334;2022-09-17T07:34:55;11.32;;;2.28;;
22539;SDS011;11436;50.860;4.334;2022-09-17T07:37:21;11.25;;;2.28;;
22539;SDS011;11436;50.860;4.334;2022-09-17T07:39:46;17.27;;;2.95;;
22539;SDS011;11436;50.860;4.334;2022-09-17T07:42:14;9.98;;;2.22;;
22539;SDS011;11436;50.860;4.334;2022-09-17T07:44:40;16.58;;;2.35;;
22539;SDS011;11436;50.860;4.334;2022-09-17T07:47:05;18.17;;;2.25;;
22539;SDS011;11436;50.860;4.334;2022-09-17T07:49:31;10.30;;;2.10;;
22539;SDS011;11436;50.860;4.334;2022-09-17T07:51:57;19.65;;;3.17;;
22539;SDS011;11436;50.860;4.334;2022-09-17T07:54:24;11.05;;;2.45;;
22539;SDS011;11436;50.860;4.334;2022-09-17T07:56:50;8.43;;;1.85;;
22539;SDS011;11436;50.860;4.334;2022-09-17T07:59:16;11.63;;;1.75;;
22539;SDS011;11436;50.860;4.334;2022-09-17T08:01:41;8.88;;;2.03;;
22539;SDS011;11436;50.860;4.334;2022-09-17T08:04:07;13.05;;;1.98;;
22539;SDS011;11436;50.860;4.334;2022-09-17T08:06:35;17.10;;;2.50;;
22539;SDS011;11436;50.860;4.334;2022-09-17T08:09:02;9.02;;;2.00;;
22539;SDS011;11436;50.860;4.334;2022-09-17T08:11:28;11.25;;;2.20;;
22539;SDS011;11436;50.860;4.334;2022-09-17T08:13:55;12.00;;;1.80;;
22539;SDS011;11436;50.860;4.334;2022-09-17T08:16:21;9.48;;;2.13;;
22539;SDS011;11436;50.860;4.334;2022-09-17T08:18:48;10.88;;;1.95;;
22539;SDS011;11436;50.860;4.334;2022-09-17T08:21:18;16.25;;;2.20;;
22539;SDS011;11436;50.860;4.334;2022-09-17T08:23:45;12.40;;;1.80;;
22539;SDS011;11436;50.860;4.334;2022-09-17T08:26:19;13.82;;;2.60;;
22539;SDS011;11436;50.860;4.334;2022-09-17T08:28:50;11.02;;;1.70;;
22539;SDS011;11436;50.860;4.334;2022-09-17T08:31:19;12.95;;;2.00;;
22539;SDS011;11436;50.860;4.334;2022-09-17T08:33:45;16.50;;;1.85;;
22539;SDS011;11436;50.860;4.334;2022-09-17T08:36:12;10.82;;;2.10;;
22539;SDS011;11436;50.860;4.334;2022-09-17T08:38:40;10.88;;;1.90;;
22539;SDS011;11436;50.860;4.334;2022-09-17T08:43:38;8.63;;;1.65;;
22539;SDS011;11436;50.860;4.334;2022-09-17T08:46:22;12.20;;;2.30;;
22539;SDS011;11436;50.860;4.334;2022-09-17T08:48:55;14.20;;;1.90;;
22539;SDS011;11436;50.860;4.334;2022-09-17T08:56:42;8.68;;;1.83;;
22539;SDS011;11436;50.860;4.334;2022-09-17T09:04:36;8.48;;;1.95;;
22539;SDS011;11436;50.860;4.334;2022-09-17T09:07:19;10.35;;;1.90;;
22539;SDS011;11436;50.860;4.334;2022-09-17T09:10:15;6.05;;;1.30;;
22539;SDS011;11436;50.860;4.334;2022-09-17T09:12:47;6.65;;;1.40;;
22539;SDS011;11436;50.860;4.334;2022-09-17T09:15:31;8.05;;;1.50;;
22539;SDS011;11436;50.860;4.334;2022-09-17T09:18:17;11.88;;;1.80;;
22539;SDS011;11436;50.860;4.334;2022-09-17T09:26:17;6.63;;;1.63;;
22539;SDS011;11436;50.860;4.334;2022-09-17T09:35:16;10.35;;;1.70;;
22539;SDS011;11436;50.860;4.334;2022-09-17T09:38:03;7.38;;;1.23;;
22539;SDS011;11436;50.860;4.334;2022-09-17T09:43:22;4.00;;;1.00;;
22539;SDS011;11436;50.860;4.334;2022-09-17T09:51:48;6.50;;;1.10;;
22539;SDS011;11436;50.860;4.334;2022-09-17T09:57:40;5.88;;;1.00;;
22539;SDS011;11436;50.860;4.334;2022-09-17T10:03:23;8.90;;;1.50;;
22539;SDS011;11436;50.860;4.334;2022-09-17T10:05:53;6.20;;;1.25;;
22539;SDS011;11436;50.860;4.334;2022-09-17T10:08:26;6.00;;;1.13;;
22539;SDS011;11436;50.860;4.334;2022-09-17T10:10:54;5.82;;;1.67;;
22539;SDS011;11436;50.860;4.334;2022-09-17T10:13:26;4.50;;;1.20;;
22539;SDS011;11436;50.860;4.334;2022-09-17T10:15:54;4.32;;;1.25;;
22539;SDS011;11436;50.860;4.334;2022-09-17T10:18:23;6.15;;;1.00;;
22539;SDS011;11436;50.860;4.334;2022-09-17T10:20:56;8.02;;;1.00;;
22539;SDS011;11436;50.860;4.334;2022-09-17T10:23:24;3.95;;;0.95;;
22539;SDS011;11436;50.860;4.334;2022-09-17T10:25:55;7.10;;;0.90;;
22539;SDS011;11436;50.860;4.334;2022-09-17T10:31:22;5.35;;;1.10;;
22539;SDS011;11436;50.860;4.334;2022-09-17T10:33:52;3.22;;;0.63;;
22539;SDS011;11436;50.860;4.334;2022-09-17T10:36:39;3.10;;;1.02;;
22539;SDS011;11436;50.860;4.334;2022-09-17T10:39:18;2.80;;;0.88;;
22539;SDS011;11436;50.860;4.334;2022-09-17T10:41:54;3.90;;;1.10;;
22539;SDS011;11436;50.860;4.334;2022-09-17T10:44:22;2.83;;;1.00;;
22539;SDS011;11436;50.860;4.334;2022-09-17T10:46:52;7.40;;;0.98;;
22539;SDS011;11436;50.860;4.334;2022-09-17T10:49:39;7.72;;;1.40;;
22539;SDS011;11436;50.860;4.334;2022-09-17T10:52:18;2.88;;;1.02;;
22539;SDS011;11436;50.860;4.334;2022-09-17T10:54:52;3.58;;;1.38;;
22539;SDS011;11436;50.860;4.334;2022-09-17T11:00:20;4.18;;;1.27;;
22539;SDS011;11436;50.860;4.334;2022-09-17T11:11:45;3.80;;;0.90;;
22539;SDS011;11436;50.860;4.334;2022-09-17T11:14:35;5.15;;;1.20;;
22539;SDS011;11436;50.860;4.334;2022-09-17T11:17:07;6.97;;;1.13;;
22539;SDS011;11436;50.860;4.334;2022-09-17T11:30:28;10.20;;;1.33;;
22539;SDS011;11436;50.860;4.334;2022-09-17T11:36:01;6.82;;;1.55;;
22539;SDS011;11436;50.860;4.334;2022-09-17T11:38:38;6.25;;;1.38;;
22539;SDS011;11436;50.860;4.334;2022-09-17T11:41:29;3.75;;;1.20;;
22539;SDS011;11436;50.860;4.334;2022-09-17T11:44:09;11.48;;;2.47;;
22539;SDS011;11436;50.860;4.334;2022-09-17T11:46:45;8.23;;;1.73;;
22539;SDS011;11436;50.860;4.334;2022-09-17T11:52:03;7.57;;;1.38;;
22539;SDS011;11436;50.860;4.334;2022-09-17T11:54:39;8.05;;;1.98;;
22539;SDS011;11436;50.860;4.334;2022-09-17T11:57:10;7.80;;;1.65;;
22539;SDS011;11436;50.860;4.334;2022-09-17T12:02:25;9.45;;;1.92;;
22539;SDS011;11436;50.860;4.334;2022-09-17T12:05:04;9.77;;;2.00;;
22539;SDS011;11436;50.860;4.334;2022-09-17T12:12:58;12.75;;;2.50;;
22539;SDS011;11436;50.860;4.334;2022-09-17T12:15:39;9.70;;;1.85;;
22539;SDS011;11436;50.860;4.334;2022-09-17T12:20:48;11.63;;;2.65;;
22539;SDS011;11436;50.860;4.334;2022-09-17T12:23:20;10.70;;;2.40;;
22539;SDS011;11436;50.860;4.334;2022-09-17T12:26:08;8.68;;;2.00;;
22539;SDS011;11436;50.860;4.334;2022-09-17T12:31:33;15.35;;;2.33;;
22539;SDS011;11436;50.860;4.334;2022-09-17T12:37:23;16.13;;;3.00;;
22539;SDS011;11436;50.860;4.334;2022-09-17T12:46:09;11.57;;;2.65;;
22539;SDS011;11436;50.860;4.334;2022-09-17T12:57:55;10.52;;;1.88;;
22539;SDS011;11436;50.860;4.334;2022-09-17T13:00:43;7.40;;;1.52;;
22539;SDS011;11436;50.860;4.334;2022-09-17T13:03:35;10.80;;;2.03;;
22539;SDS011;11436;50.860;4.334;2022-09-17T13:06:26;9.73;;;2.25;;
22539;SDS011;11436;50.860;4.334;2022-09-17T13:12:00;21.20;;;2.28;;
22539;SDS011;11436;50.860;4.334;2022-09-17T13:14:50;7.55;;;1.73;;
22539;SDS011;11436;50.860;4.334;2022-09-17T13:17:37;10.50;;;2.20;;
22539;SDS011;11436;50.860;4.334;2022-09-17T13:20:14;17.45;;;6.85;;
22539;SDS011;11436;50.860;4.334;2022-09-17T13:22:48;8.85;;;2.03;;
22539;SDS011;11436;50.860;4.334;2022-09-17T13:25:16;9.43;;;2.53;;
22539;SDS011;11436;50.860;4.334;2022-09-17T13:27:44;15.75;;;2.35;;
22539;SDS011;11436;50.860;4.334;2022-09-17T13:30:15;16.58;;;2.53;;
22539;SDS011;11436;50.860;4.334;2022-09-17T13:37:55;13.90;;;2.55;;
22539;SDS011;11436;50.860;4.334;2022-09-17T13:40:23;10.15;;;2.55;;
22539;SDS011;11436;50.860;4.334;2022-09-17T13:42:51;13.48;;;2.17;;
22539;SDS011;11436;50.860;4.334;2022-09-17T13:45:19;11.73;;;2.67;;
22539;SDS011;11436;50.860;4.334;2022-09-17T13:50:23;8.82;;;2.22;;
22539;SDS011;11436;50.860;4.334;2022-09-17T13:58:29;12.98;;;2.70;;
22539;SDS011;11436;50.860;4.334;2022-09-17T14:01:04;4.75;;;2.05;;
22539;SDS011;11436;50.860;4.334;2022-09-17T14:24:39;6.65;;;1.15;;
22539;SDS011;11436;50.860;4.334;2022-09-17T14:30:20;6.57;;;1.45;;
22539;SDS011;11436;50.860;4.334;2022-09-17T14:46:23;7.72;;;1.20;;
22539;SDS011;11436;50.860;4.334;2022-09-17T14:48:52;5.13;;;0.90;;
22539;SDS011;11436;50.860;4.334;2022-09-17T14:53:47;6.95;;;1.17;;
22539;SDS011;11436;50.860;4.334;2022-09-17T14:56:31;7.95;;;1.27;;
22539;SDS011;11436;50.860;4.334;2022-09-17T14:58:58;6.22;;;1.70;;
22539;SDS011;11436;50.860;4.334;2022-09-17T15:01:26;5.20;;;1.33;;
22539;SDS011;11436;50.860;4.334;2022-09-17T15:04:09;7.38;;;1.17;;
22539;SDS011;11436;50.860;4.334;2022-09-17T15:06:35;4.30;;;1.38;;
22539;SDS011;11436;50.860;4.334;2022-09-17T15:09:00;7.80;;;1.30;;
22539;SDS011;11436;50.860;4.334;2022-09-17T15:11:26;8.73;;;1.48;;
22539;SDS011;11436;50.860;4.334;2022-09-17T15:13:53;9.57;;;1.75;;
22539;SDS011;11436;50.860;4.334;2022-09-17T15:16:26;7.82;;;1.50;;
22539;SDS011;11436;50.860;4.334;2022-09-17T15:18:55;5.70;;;1.45;;
22539;SDS011;11436;50.860;4.334;2022-09-17T15:21:42;6.60;;;1.38;;
22539;SDS011;11436;50.860;4.334;2022-09-17T15:27:19;7.43;;;1.80;;
22539;SDS011;11436;50.860;4.334;2022-09-17T15:29:52;5.88;;;1.30;;
22539;SDS011;11436;50.860;4.334;2022-09-17T15:32:33;5.32;;;1.67;;
22539;SDS011;11436;50.860;4.334;2022-09-17T15:40:12;9.43;;;1.63;;
22539;SDS011;11436;50.860;4.334;2022-09-17T15:42:47;8.80;;;1.80;;
22539;SDS011;11436;50.860;4.334;2022-09-17T15:45:25;8.15;;;1.58;;
22539;SDS011;11436;50.860;4.334;2022-09-17T15:47:59;7.20;;;1.45;;
22539;SDS011;11436;50.860;4.334;2022-09-17T15:50:27;5.18;;;1.20;;
22539;SDS011;11436;50.860;4.334;2022-09-17T15:55:43;6.75;;;1.67;;
22539;SDS011;11436;50.860;4.334;2022-09-17T15:58:26;5.78;;;1.50;;
22539;SDS011;11436;50.860;4.334;2022-09-17T16:08:42;10.82;;;6.30;;
22539;SDS011;11436;50.860;4.334;2022-09-17T16:11:15;3.45;;;1.20;;
22539;SDS011;11436;50.860;4.334;2022-09-17T16:13:44;4.35;;;1.63;;
22539;SDS011;11436;50.860;4.334;2022-09-17T16:16:14;8.00;;;2.15;;
22539;SDS011;11436;50.860;4.334;2022-09-17T16:18:48;2.75;;;1.08;;
22539;SDS011;11436;50.860;4.334;2022-09-17T16:21:15;4.75;;;1.15;;
22539;SDS011;11436;50.860;4.334;2022-09-17T16:23:42;5.63;;;1.20;;
22539;SDS011;11436;50.860;4.334;2022-09-17T16:26:11;4.72;;;1.00;;
22539;SDS011;11436;50.860;4.334;2022-09-17T16:28:40;9.45;;;0.90;;
22539;SDS011;11436;50.860;4.334;2022-09-17T16:31:06;3.75;;;1.00;;
22539;SDS011;11436;50.860;4.334;2022-09-17T16:33:37;7.88;;;1.38;;
22539;SDS011;11436;50.860;4.334;2022-09-17T16:36:02;4.53;;;1.17;;
22539;SDS011;11436;50.860;4.334;2022-09-17T16:38:29;3.08;;;1.17;;
22539;SDS011;11436;50.860;4.334;2022-09-17T16:40:56;7.43;;;1.30;;
22539;SDS011;11436;50.860;4.334;2022-09-17T16:43:22;6.55;;;2.22;;
22539;SDS011;11436;50.860;4.334;2022-09-17T16:45:58;10.80;;;1.88;;
22539;SDS011;11436;50.860;4.334;2022-09-17T16:48:25;4.88;;;1.00;;
22539;SDS011;11436;50.860;4.334;2022-09-17T16:50:50;7.50;;;1.90;;
22539;SDS011;11436;50.860;4.334;2022-09-17T16:53:16;8.20;;;1.90;;
22539;SDS011;11436;50.860;4.334;2022-09-17T16:55:42;8.32;;;1.40;;
22539;SDS011;11436;50.860;4.334;2022-09-17T16:58:08;7.95;;;1.50;;
22539;SDS011;11436;50.860;4.334;2022-09-17T17:00:34;8.80;;;1.80;;
22539;SDS011;11436;50.860;4.334;2022-09-17T17:03:01;12.80;;;2.10;;
22539;SDS011;11436;50.860;4.334;2022-09-17T17:05:28;5.03;;;1.45;;
22539;SDS011;11436;50.860;4.334;2022-09-17T17:07:55;12.52;;;5.05;;
22539;SDS011;11436;50.860;4.334;2022-09-17T17:10:21;12.77;;;4.80;;
22539;SDS011;11436;50.860;4.334;2022-09-17T17:12:48;6.95;;;2.53;;
22539;SDS011;11436;50.860;4.334;2022-09-17T17:15:14;7.75;;;1.73;;
22539;SDS011;11436;50.860;4.334;2022-09-17T17:17:40;17.92;;;7.28;;
22539;SDS011;11436;50.860;4.334;2022-09-17T17:20:07;9.25;;;2.20;;
22539;SDS011;11436;50.860;4.334;2022-09-17T17:22:38;8.25;;;1.77;;
22539;SDS011;11436;50.860;4.334;2022-09-17T17:25:05;7.90;;;1.67;;
22539;SDS011;11436;50.860;4.334;2022-09-17T17:27:31;9.77;;;2.35;;
22539;SDS011;11436;50.860;4.334;2022-09-17T17:29:58;6.60;;;1.48;;
22539;SDS011;11436;50.860;4.334;2022-09-17T17:32:26;8.82;;;1.67;;
22539;SDS011;11436;50.860;4.334;2022-09-17T17:34:52;8.73;;;2.00;;
22539;SDS011;11436;50.860;4.334;2022-09-17T17:37:18;6.57;;;1.92;;
22539;SDS011;11436;50.860;4.334;2022-09-17T17:39:44;8.85;;;2.05;;
22539;SDS011;11436;50.860;4.334;2022-09-17T17:42:09;9.43;;;1.63;;
22539;SDS011;11436;50.860;4.334;2022-09-17T17:44:35;8.30;;;2.42;;
22539;SDS011;11436;50.860;4.334;2022-09-17T17:47:01;7.38;;;1.90;;
22539;SDS011;11436;50.860;4.334;2022-09-17T17:49:26;8.23;;;2.00;;
22539;SDS011;11436;50.860;4.334;2022-09-17T17:51:52;9.48;;;2.15;;
22539;SDS011;11436;50.860;4.334;2022-09-17T17:54:18;8.18;;;2.13;;
22539;SDS011;11436;50.860;4.334;2022-09-17T17:56:45;13.98;;;2.53;;
22539;SDS011;11436;50.860;4.334;2022-09-17T17:59:11;15.20;;;2.72;;
22539;SDS011;11436;50.860;4.334;2022-09-17T18:01:37;11.90;;;2.42;;
22539;SDS011;11436;50.860;4.334;2022-09-17T18:04:03;7.88;;;1.83;;
22539;SDS011;11436;50.860;4.334;2022-09-17T18:06:31;10.70;;;2.35;;
22539;SDS011;11436;50.860;4.334;2022-09-17T18:08:57;13.95;;;2.30;;
22539;SDS011;11436;50.860;4.334;2022-09-17T18:11:24;12.13;;;2.38;;
22539;SDS011;11436;50.860;4.334;2022-09-17T18:13:51;10.90;;;2.75;;
22539;SDS011;11436;50.860;4.334;2022-09-17T18:16:18;10.05;;;2.33;;
22539;SDS011;11436;50.860;4.334;2022-09-17T18:18:44;10.63;;;2.65;;
22539;SDS011;11436;50.860;4.334;2022-09-17T18:21:17;10.32;;;2.72;;
22539;SDS011;11436;50.860;4.334;2022-09-17T18:23:45;11.30;;;2.67;;
22539;SDS011;11436;50.860;4.334;2022-09-17T18:26:22;13.30;;;2.90;;
22539;SDS011;11436;50.860;4.334;2022-09-17T18:28:50;11.60;;;2.92;;
22539;SDS011;11436;50.860;4.334;2022-09-17T18:33:52;12.02;;;2.75;;
22539;SDS011;11436;50.860;4.334;2022-09-17T18:36:22;17.98;;;3.08;;
22539;SDS011;11436;50.860;4.334;2022-09-17T18:38:53;8.52;;;3.25;;
22539;SDS011;11436;50.860;4.334;2022-09-17T18:41:22;11.77;;;2.90;;
22539;SDS011;11436;50.860;4.334;2022-09-17T18:43:47;10.35;;;3.15;;
22539;SDS011;11436;50.860;4.334;2022-09-17T18:46:13;16.55;;;3.15;;
22539;SDS011;11436;50.860;4.334;2022-09-17T18:48:39;11.73;;;3.35;;